Time;durP1;ratioP1;P1;durP2;ratioP2;P2;SDS_P1;SDS_P2;PMS_P1;PMS_P2;Temp;Humidity;BMP_temperature;BMP_pressure;BME280_temperature;BME280_humidity;BME280_pressure;Samples;Min_cycle;Max_cycle;Signal;HPM_P1;HPM_P2
2023/12/04 00:01:45;;;;;;;4.57;4.18;;;-6.80;99.90;;;;;;5018854;28;20456;-80
2023/12/04 00:04:13;;;;;;;3.67;3.47;;;-6.80;99.90;;;;;;5034128;28;20414;-79
2023/12/04 00:06:43;;;;;;;7.93;6.28;;;-6.70;99.90;;;;;;5010492;28;20214;-79
2023/12/04 00:09:12;;;;;;;14.73;5.93;;;-6.80;99.90;;;;;;5013489;28;20218;-79
2023/12/04 00:11:38;;;;;;;8.80;8.15;;;-6.80;99.90;;;;;;5024342;28;20493;-80
2023/12/04 00:14:06;;;;;;;4.03;3.78;;;-6.80;99.90;;;;;;5026761;28;20241;-77
2023/12/04 00:16:36;;;;;;;15.93;6.22;;;-6.80;99.90;;;;;;5033820;28;20276;-81
2023/12/04 00:19:03;;;;;;;7.43;6.65;;;-6.80;99.90;;;;;;5012271;28;20214;-81
2023/12/04 00:21:30;;;;;;;5.57;4.97;;;-6.80;99.90;;;;;;5017477;28;20209;-81
2023/12/04 00:23:58;;;;;;;3.67;2.17;;;-6.80;99.90;;;;;;5025234;28;20209;-79
2023/12/04 00:26:25;;;;;;;8.70;5.90;;;-6.80;99.90;;;;;;5010392;28;20525;-82
2023/12/04 00:28:53;;;;;;;6.18;5.75;;;-6.90;99.90;;;;;;5021698;28;20221;-82
2023/12/04 00:31:20;;;;;;;4.90;4.50;;;-6.90;99.90;;;;;;4994100;28;20221;-81
2023/12/04 00:33:48;;;;;;;5.63;4.70;;;-7.00;99.90;;;;;;5015211;28;20296;-79
2023/12/04 00:36:15;;;;;;;7.40;5.43;;;-7.00;99.90;;;;;;5031286;28;20526;-81
2023/12/04 00:38:42;;;;;;;6.45;5.93;;;-7.00;99.90;;;;;;5002254;28;20205;-80
2023/12/04 00:41:10;;;;;;;9.70;6.70;;;-7.00;99.90;;;;;;5023647;28;20244;-80
2023/12/04 00:43:38;;;;;;;10.63;9.43;;;-7.00;99.90;;;;;;5021615;28;20229;-83
2023/12/04 00:46:05;;;;;;;16.02;12.63;;;-7.00;99.90;;;;;;5028976;28;20220;-80
2023/12/04 00:48:32;;;;;;;16.95;8.55;;;-7.00;99.90;;;;;;5008200;28;20437;-83
2023/12/04 00:50:59;;;;;;;9.65;8.65;;;-6.90;99.90;;;;;;5024265;28;20376;-82
2023/12/04 00:53:26;;;;;;;4.00;3.80;;;-7.00;99.90;;;;;;5015068;28;20478;-81
2023/12/04 00:55:53;;;;;;;12.98;8.27;;;-6.90;99.90;;;;;;5036682;28;20528;-80
2023/12/04 00:58:21;;;;;;;5.25;4.85;;;-6.90;99.90;;;;;;5005992;28;20209;-80
2023/12/04 01:00:51;;;;;;;7.07;6.50;;;-6.90;99.90;;;;;;5020454;28;20209;-82
2023/12/04 01:03:18;;;;;;;28.05;8.57;;;-6.80;99.90;;;;;;5019105;28;20506;-81
2023/12/04 01:05:46;;;;;;;3.53;3.17;;;-6.90;99.90;;;;;;5010167;28;20548;-82
2023/12/04 01:08:13;;;;;;;5.78;3.47;;;-6.90;99.90;;;;;;5024849;28;20247;-80
2023/12/04 01:10:40;;;;;;;7.85;4.50;;;-6.90;99.90;;;;;;5020808;28;20261;-82
2023/12/04 01:13:06;;;;;;;9.98;3.05;;;-6.90;99.90;;;;;;5012902;28;20248;-81
2023/12/04 01:15:34;;;;;;;3.08;2.95;;;-6.90;99.90;;;;;;5018186;28;20256;-81
2023/12/04 01:18:01;;;;;;;5.22;4.95;;;-7.10;99.90;;;;;;5024098;28;20198;-80
2023/12/04 01:20:30;;;;;;;5.45;3.90;;;-7.10;99.90;;;;;;5014881;28;20213;-80
2023/12/04 01:22:57;;;;;;;3.40;2.85;;;-7.10;99.90;;;;;;5032083;28;20229;-79
2023/12/04 01:25:24;;;;;;;3.60;3.42;;;-7.10;99.90;;;;;;5031142;28;20212;-78
2023/12/04 01:27:51;;;;;;;3.22;2.95;;;-7.20;99.90;;;;;;5015817;28;20530;-79
2023/12/04 01:30:18;;;;;;;6.53;6.03;;;-7.30;99.90;;;;;;5015819;28;20259;-79
2023/12/04 01:32:46;;;;;;;5.47;5.07;;;-7.30;99.90;;;;;;5037158;28;20219;-80
2023/12/04 01:35:13;;;;;;;4.60;4.20;;;-7.30;99.90;;;;;;5024743;28;20271;-79
2023/12/04 01:37:40;;;;;;;4.65;4.22;;;-7.30;99.90;;;;;;5022120;28;20217;-78
2023/12/04 01:40:09;;;;;;;2.40;2.30;;;-7.40;99.90;;;;;;5021968;28;20561;-78
2023/12/04 01:42:36;;;;;;;4.43;3.67;;;-7.40;99.90;;;;;;5030176;28;20215;-79
2023/12/04 01:45:03;;;;;;;2.53;1.75;;;-7.40;99.90;;;;;;5023629;28;20209;-79
2023/12/04 01:47:30;;;;;;;2.55;2.45;;;-7.40;99.90;;;;;;5013483;28;20595;-79
2023/12/04 01:49:58;;;;;;;11.63;4.85;;;-7.40;99.90;;;;;;5034500;28;20217;-79
2023/12/04 01:52:24;;;;;;;2.78;2.65;;;-7.40;99.90;;;;;;5009045;28;20229;-80
2023/12/04 01:54:52;;;;;;;2.33;2.22;;;-7.40;99.90;;;;;;5019606;28;20224;-80
2023/12/04 01:57:19;;;;;;;5.32;5.07;;;-7.50;99.90;;;;;;5024551;28;20223;-81
2023/12/04 01:59:47;;;;;;;14.55;3.55;;;-7.40;99.90;;;;;;5010246;28;20204;-82
2023/12/04 02:02:14;;;;;;;6.13;5.72;;;-7.50;99.90;;;;;;5028009;28;20206;-81
2023/12/04 02:04:41;;;;;;;4.55;4.15;;;-7.50;99.90;;;;;;5010806;28;20237;-81
2023/12/04 02:07:09;;;;;;;4.95;4.65;;;-7.50;99.90;;;;;;5033485;28;20221;-81
2023/12/04 02:09:37;;;;;;;3.15;2.95;;;-7.40;99.90;;;;;;5031937;28;20220;-79
2023/12/04 02:12:05;;;;;;;3.22;3.05;;;-7.60;99.90;;;;;;5025999;28;20218;-81
2023/12/04 02:14:33;;;;;;;4.10;3.90;;;-7.60;99.90;;;;;;5010230;28;20592;-80
2023/12/04 02:17:03;;;;;;;6.78;4.07;;;-7.60;99.90;;;;;;4991672;28;20231;-81
2023/12/04 02:19:31;;;;;;;4.70;4.45;;;-7.60;99.90;;;;;;5023460;28;20205;-81
2023/12/04 02:21:58;;;;;;;8.18;4.35;;;-7.60;99.90;;;;;;5033748;28;20446;-81
2023/12/04 02:24:26;;;;;;;3.60;3.30;;;-7.60;99.90;;;;;;5012308;28;20212;-80
2023/12/04 02:27:17;;;;;;;4.97;3.95;;;-7.60;99.90;;;;;;4998918;28;20213;-80
2023/12/04 02:29:54;;;;;;;18.75;5.25;;;-7.70;99.90;;;;;;4998712;28;20277;-80
2023/12/04 02:32:24;;;;;;;3.22;3.13;;;-7.80;99.90;;;;;;5003733;28;20594;-80
2023/12/04 02:34:54;;;;;;;4.30;4.00;;;-7.80;99.90;;;;;;5029757;28;20213;-79
2023/12/04 02:37:23;;;;;;;6.28;5.75;;;-7.80;99.90;;;;;;5015055;28;20399;-79
2023/12/04 02:39:54;;;;;;;6.20;5.72;;;-7.50;99.90;;;;;;5023555;28;20220;-80
2023/12/04 02:42:24;;;;;;;5.13;3.42;;;-7.60;99.90;;;;;;5048698;28;20632;-81
2023/12/04 02:44:52;;;;;;;3.75;3.45;;;-7.60;99.90;;;;;;5032657;28;20228;-82
2023/12/04 02:47:19;;;;;;;4.38;3.92;;;-7.50;99.90;;;;;;5022193;28;20240;-81
2023/12/04 02:49:46;;;;;;;5.70;5.18;;;-7.60;99.90;;;;;;5018671;28;20200;-81
2023/12/04 02:52:13;;;;;;;4.57;4.30;;;-7.50;99.90;;;;;;5009817;28;20210;-81
2023/12/04 02:54:41;;;;;;;4.70;4.00;;;-7.60;99.90;;;;;;5020535;28;20254;-81
2023/12/04 02:57:07;;;;;;;3.72;3.47;;;-7.70;99.90;;;;;;5024564;28;20205;-83
2023/12/04 02:59:35;;;;;;;4.95;4.38;;;-7.70;99.90;;;;;;5010358;28;20216;-81
2023/12/04 03:02:02;;;;;;;5.85;5.28;;;-7.70;99.90;;;;;;5027308;28;20221;-82
2023/12/04 03:04:31;;;;;;;5.07;3.35;;;-7.70;99.90;;;;;;5015851;28;20213;-81
2023/12/04 03:06:57;;;;;;;3.38;2.83;;;-7.70;99.90;;;;;;5018180;28;20296;-81
2023/12/04 03:09:25;;;;;;;5.90;5.50;;;-7.70;99.90;;;;;;5024732;28;20536;-81
2023/12/04 03:12:12;;;;;;;3.60;3.30;;;-7.80;99.90;;;;;;4999709;28;20261;-80
2023/12/04 03:14:39;;;;;;;6.18;3.60;;;-7.80;99.90;;;;;;5022511;28;20294;-81
2023/12/04 03:17:06;;;;;;;1.17;1.17;;;-7.90;99.90;;;;;;5023045;28;20197;-81
2023/12/04 03:19:33;;;;;;;7.13;6.40;;;-7.90;99.90;;;;;;5005132;28;20300;-81
2023/12/04 03:22:00;;;;;;;3.35;2.88;;;-7.80;99.90;;;;;;5034184;28;20213;-82
2023/12/04 03:24:28;;;;;;;4.70;4.25;;;-7.90;99.90;;;;;;5005156;28;20480;-81
2023/12/04 03:26:56;;;;;;;5.75;5.20;;;-7.90;99.90;;;;;;5014255;28;20206;-82
2023/12/04 03:29:23;;;;;;;3.63;2.85;;;-7.90;99.90;;;;;;5022989;28;20239;-79
2023/12/04 03:31:51;;;;;;;2.10;2.00;;;-7.80;99.90;;;;;;5007588;28;20532;-79
2023/12/04 03:34:18;;;;;;;3.25;3.05;;;-8.00;99.90;;;;;;5037703;28;20390;-80
2023/12/04 03:36:45;;;;;;;6.63;6.05;;;-8.00;99.90;;;;;;5024922;28;20450;-79
2023/12/04 03:39:12;;;;;;;4.95;4.75;;;-8.00;99.90;;;;;;5005448;28;20429;-80
2023/12/04 03:41:39;;;;;;;2.65;2.45;;;-8.10;99.90;;;;;;5033495;28;20202;-81
2023/12/04 03:44:07;;;;;;;5.82;5.30;;;-8.00;99.90;;;;;;5009447;28;20261;-80
2023/12/04 03:46:34;;;;;;;4.50;3.88;;;-8.10;99.90;;;;;;5040332;28;20280;-80
2023/12/04 03:49:01;;;;;;;1.40;1.40;;;-8.20;99.90;;;;;;5006722;28;20194;-82
2023/12/04 03:51:28;;;;;;;9.60;6.10;;;-8.20;99.90;;;;;;5034290;28;20255;-80
2023/12/04 03:53:56;;;;;;;6.57;5.90;;;-8.30;99.90;;;;;;5022851;28;20240;-82
2023/12/04 03:56:24;;;;;;;4.85;4.57;;;-8.40;99.90;;;;;;5024838;28;20269;-80
2023/12/04 03:58:51;;;;;;;5.90;5.45;;;-8.20;99.90;;;;;;5018596;28;20232;-81
2023/12/04 04:01:18;;;;;;;3.67;3.17;;;-8.20;99.90;;;;;;5030581;28;20300;-82
2023/12/04 04:03:45;;;;;;;1.52;1.52;;;-8.20;99.90;;;;;;5027882;28;20488;-78
2023/12/04 04:06:13;;;;;;;6.22;5.70;;;-8.30;99.90;;;;;;5018504;28;20209;-80
2023/12/04 04:08:40;;;;;;;4.30;2.95;;;-8.30;99.90;;;;;;5017057;28;20259;-79
2023/12/04 04:11:07;;;;;;;7.13;6.53;;;-8.30;99.90;;;;;;5008527;28;20277;-81
2023/12/04 04:13:34;;;;;;;4.43;4.22;;;-8.20;99.90;;;;;;5023393;28;20223;-82
2023/12/04 04:16:01;;;;;;;5.90;5.50;;;-8.30;99.90;;;;;;5024850;28;20222;-79
2023/12/04 04:18:28;;;;;;;4.45;4.13;;;-8.30;99.90;;;;;;5026622;28;20549;-79
2023/12/04 04:20:56;;;;;;;2.65;2.45;;;-8.30;99.90;;;;;;5014211;28;20199;-82
2023/12/04 04:23:23;;;;;;;4.32;4.03;;;-8.20;99.90;;;;;;5019240;28;20233;-81
2023/12/04 04:25:51;;;;;;;2.92;2.72;;;-8.10;99.90;;;;;;5022443;28;20245;-80
2023/12/04 04:28:17;;;;;;;3.67;3.40;;;-8.30;99.90;;;;;;5039860;28;20253;-84
2023/12/04 04:30:46;;;;;;;3.88;3.53;;;-8.40;99.90;;;;;;5028899;28;20286;-82
2023/12/04 04:33:13;;;;;;;4.85;4.55;;;-8.40;99.90;;;;;;5015285;28;20210;-82
2023/12/04 04:35:42;;;;;;;4.20;3.90;;;-8.40;99.90;;;;;;4995908;28;20249;-82
2023/12/04 04:38:09;;;;;;;8.20;6.50;;;-8.30;99.90;;;;;;5026263;28;20205;-82
2023/12/04 04:40:37;;;;;;;3.40;3.22;;;-8.30;99.90;;;;;;5003542;28;20262;-82
2023/12/04 04:43:05;;;;;;;4.97;4.53;;;-8.50;99.90;;;;;;4979812;28;20230;-83
2023/12/04 04:45:32;;;;;;;4.55;4.25;;;-8.40;99.90;;;;;;5018882;28;20502;-82
2023/12/04 04:47:59;;;;;;;2.25;2.15;;;-8.30;99.90;;;;;;5003862;28;20266;-82
2023/12/04 04:50:26;;;;;;;2.95;2.67;;;-8.30;99.90;;;;;;5022459;28;20224;-83
2023/12/04 04:52:53;;;;;;;1.60;1.60;;;-8.20;99.90;;;;;;5011660;28;20244;-82
2023/12/04 04:55:20;;;;;;;2.28;2.00;;;-8.10;99.90;;;;;;4994846;28;20234;-83
2023/12/04 04:58:07;;;;;;;10.02;3.80;;;-8.20;99.90;;;;;;5015494;28;20469;-82
2023/12/04 05:00:34;;;;;;;2.13;1.88;;;-8.20;99.90;;;;;;5006857;28;20210;-82
2023/12/04 05:03:01;;;;;;;2.17;2.08;;;-8.30;99.90;;;;;;5003313;28;20206;-81
2023/12/04 05:05:29;;;;;;;2.13;1.90;;;-8.20;99.90;;;;;;5013427;28;20276;-82
2023/12/04 05:07:56;;;;;;;5.30;4.80;;;-8.30;99.90;;;;;;5008875;28;20204;-81
2023/12/04 05:10:23;;;;;;;1.20;1.20;;;-8.30;99.90;;;;;;5013128;28;20289;-83
2023/12/04 05:12:50;;;;;;;4.53;4.22;;;-8.20;99.90;;;;;;5020995;28;20216;-85
2023/12/04 05:15:17;;;;;;;3.33;3.15;;;-8.20;99.90;;;;;;5017967;28;20218;-83
2023/12/04 05:17:46;;;;;;;1.17;1.17;;;-8.20;99.90;;;;;;5011393;28;20489;-84
2023/12/04 05:20:14;;;;;;;4.03;3.72;;;-8.20;99.90;;;;;;5030482;28;20197;-83
2023/12/04 05:22:40;;;;;;;8.55;2.92;;;-8.20;99.90;;;;;;5024538;28;20240;-84
2023/12/04 05:25:07;;;;;;;2.25;1.98;;;-8.20;99.90;;;;;;4997166;28;20229;-84
2023/12/04 05:27:34;;;;;;;4.25;3.83;;;-8.10;99.90;;;;;;5013623;28;20214;-81
2023/12/04 05:30:02;;;;;;;3.08;2.85;;;-8.10;99.90;;;;;;5017596;28;20244;-82
2023/12/04 05:32:29;;;;;;;2.42;2.33;;;-8.10;99.90;;;;;;5005247;28;20217;-84
2023/12/04 05:34:58;;;;;;;2.85;2.38;;;-8.10;99.90;;;;;;5037271;28;20209;-82
2023/12/04 05:37:25;;;;;;;2.67;2.60;;;-8.10;99.90;;;;;;5032637;28;20193;-80
2023/12/04 05:39:52;;;;;;;4.38;4.15;;;-8.00;99.90;;;;;;5026681;28;20200;-83
2023/12/04 05:42:20;;;;;;;4.30;4.00;;;-8.10;99.90;;;;;;5037711;28;20206;-82
2023/12/04 05:44:47;;;;;;;0.95;0.95;;;-8.00;99.90;;;;;;5008179;28;20232;-82
2023/12/04 05:47:14;;;;;;;5.13;4.70;;;-8.00;99.90;;;;;;4994061;28;20235;-83
2023/12/04 05:49:41;;;;;;;3.88;2.65;;;-8.00;99.90;;;;;;5015770;28;20208;-79
2023/12/04 05:52:09;;;;;;;3.40;3.20;;;-8.10;99.90;;;;;;5029269;28;20201;-78
2023/12/04 05:54:36;;;;;;;3.20;2.35;;;-8.00;99.90;;;;;;5004909;28;20214;-80
2023/12/04 05:57:04;;;;;;;5.57;5.10;;;-8.10;99.90;;;;;;5015197;28;20437;-80
2023/12/04 05:59:31;;;;;;;5.50;5.05;;;-8.10;99.90;;;;;;5012562;28;20467;-79
2023/12/04 06:01:58;;;;;;;2.45;2.35;;;-8.10;99.90;;;;;;5009624;28;20200;-81
2023/12/04 06:04:25;;;;;;;4.22;4.03;;;-8.00;99.90;;;;;;5012846;28;20431;-85
2023/12/04 06:06:52;;;;;;;4.50;4.20;;;-8.10;99.90;;;;;;5004633;28;20235;-83
2023/12/04 06:09:18;;;;;;;2.67;2.58;;;-8.10;99.90;;;;;;5011160;28;20255;-85
2023/12/04 06:11:46;;;;;;;2.45;2.35;;;-8.10;99.90;;;;;;5038671;28;20212;-82
2023/12/04 06:14:13;;;;;;;2.30;2.20;;;-8.10;99.90;;;;;;5025977;28;20224;-85
2023/12/04 06:16:40;;;;;;;2.70;2.60;;;-8.10;99.90;;;;;;5044116;28;20292;-85
2023/12/04 06:19:07;;;;;;;2.80;2.67;;;-8.10;99.90;;;;;;5025261;28;20212;-85
2023/12/04 06:21:35;;;;;;;5.88;2.60;;;-8.10;99.90;;;;;;4992867;28;20202;-84
2023/12/04 06:24:02;;;;;;;2.35;2.25;;;-8.10;99.90;;;;;;5029926;28;20224;-83
2023/12/04 06:26:36;;;;;;;2.88;2.47;;;-8.10;99.90;;;;;;5011169;28;20206;-82
2023/12/04 06:29:03;;;;;;;4.15;3.92;;;-8.20;99.90;;;;;;5013605;28;20261;-84
2023/12/04 06:31:30;;;;;;;2.28;2.17;;;-8.10;99.90;;;;;;5019630;28;20214;-80
2023/12/04 06:33:58;;;;;;;5.40;5.10;;;-8.20;99.90;;;;;;5018544;28;20209;-84
2023/12/04 06:36:28;;;;;;;3.13;3.03;;;-8.20;99.90;;;;;;5027613;28;20285;-83
2023/12/04 06:38:56;;;;;;;7.35;4.38;;;-8.30;99.90;;;;;;4994898;28;20213;-83
2023/12/04 06:41:23;;;;;;;2.67;2.58;;;-8.30;99.90;;;;;;5013008;28;20213;-82
2023/12/04 06:43:51;;;;;;;2.53;2.42;;;-8.20;99.90;;;;;;4997531;28;20205;-85
2023/12/04 06:46:23;;;;;;;3.70;3.53;;;-8.30;99.90;;;;;;5034165;28;20217;-83
2023/12/04 06:48:56;;;;;;;3.60;3.40;;;-8.30;99.90;;;;;;5034737;28;20201;-84
2023/12/04 06:51:24;;;;;;;6.32;4.95;;;-8.30;99.90;;;;;;5026238;28;20228;-81
2023/12/04 06:53:52;;;;;;;1.40;1.30;;;-8.30;99.90;;;;;;5018579;28;20439;-85
2023/12/04 06:56:18;;;;;;;6.32;6.03;;;-8.10;99.90;;;;;;5014303;28;20249;-83
2023/12/04 06:58:47;;;;;;;6.43;3.88;;;-8.10;99.90;;;;;;5014462;28;20259;-82
2023/12/04 07:01:14;;;;;;;2.85;2.65;;;-7.90;99.90;;;;;;5035782;28;20239;-81
2023/12/04 07:03:41;;;;;;;3.65;3.50;;;-7.80;99.90;;;;;;5023482;28;20216;-85
2023/12/04 07:06:08;;;;;;;3.95;3.75;;;-7.90;99.90;;;;;;5029024;28;20215;-83
2023/12/04 07:08:35;;;;;;;3.80;3.50;;;-8.00;99.90;;;;;;5030878;28;20287;-82
2023/12/04 07:11:04;;;;;;;5.22;4.93;;;-7.90;99.90;;;;;;5037429;28;20214;-81
2023/12/04 07:13:31;;;;;;;2.10;2.00;;;-8.00;99.90;;;;;;5017797;28;20214;-82
2023/12/04 07:15:59;;;;;;;3.75;3.55;;;-8.10;99.90;;;;;;5021353;28;20257;-82
2023/12/04 07:18:26;;;;;;;7.10;6.57;;;-8.10;99.90;;;;;;5029783;28;20202;-81
2023/12/04 07:20:53;;;;;;;5.15;4.72;;;-8.20;99.90;;;;;;5027494;28;20210;-83
2023/12/04 07:23:20;;;;;;;5.57;5.18;;;-8.20;99.90;;;;;;5021775;28;20242;-84
2023/12/04 07:25:52;;;;;;;3.15;3.05;;;-8.20;99.90;;;;;;5014651;28;20242;-84
2023/12/04 07:28:20;;;;;;;4.03;3.83;;;-8.20;99.90;;;;;;5015973;28;20293;-82
2023/12/04 07:30:47;;;;;;;5.50;5.10;;;-8.10;99.90;;;;;;5018233;28;20751;-84
2023/12/04 07:33:14;;;;;;;6.85;5.47;;;-8.20;99.90;;;;;;5020404;28;20213;-84
2023/12/04 07:35:42;;;;;;;2.80;2.70;;;-8.10;99.90;;;;;;5025289;28;20233;-85
2023/12/04 07:38:09;;;;;;;2.33;2.22;;;-8.10;99.90;;;;;;5019640;28;20265;-83
2023/12/04 07:40:36;;;;;;;2.47;2.35;;;-8.00;99.90;;;;;;5020914;28;20273;-82
2023/12/04 07:43:03;;;;;;;5.55;5.25;;;-7.90;99.90;;;;;;5017570;28;20415;-82
2023/12/04 07:45:30;;;;;;;5.72;5.35;;;-7.90;99.90;;;;;;5023303;28;20212;-83
2023/12/04 07:47:58;;;;;;;9.50;8.13;;;-7.90;99.90;;;;;;5007158;28;20208;-85
2023/12/04 07:50:25;;;;;;;5.47;5.03;;;-7.80;99.90;;;;;;5036680;28;20251;-81
2023/12/04 07:52:52;;;;;;;6.18;4.13;;;-7.70;99.90;;;;;;5025964;28;20268;-81
2023/12/04 07:55:19;;;;;;;5.22;4.93;;;-7.70;99.90;;;;;;5022234;28;20256;-81
2023/12/04 07:57:47;;;;;;;8.73;8.27;;;-7.60;99.90;;;;;;5027968;28;20557;-82
2023/12/04 08:00:14;;;;;;;4.35;4.15;;;-7.60;99.90;;;;;;5011463;28;20201;-81
2023/12/04 08:02:44;;;;;;;4.53;4.18;;;-7.60;99.90;;;;;;5023919;28;20218;-83
2023/12/04 08:05:12;;;;;;;5.03;4.72;;;-7.30;99.90;;;;;;5023754;28;20209;-83
2023/12/04 08:07:41;;;;;;;12.63;11.38;;;-7.30;99.90;;;;;;5043728;28;20209;-82
2023/12/04 08:10:08;;;;;;;5.55;5.25;;;-7.10;99.90;;;;;;5048648;28;20205;-81
2023/12/04 08:12:35;;;;;;;10.90;7.28;;;-7.20;99.90;;;;;;5027072;28;20205;-81
2023/12/04 08:15:04;;;;;;;6.90;4.88;;;-7.20;99.90;;;;;;5047118;28;20198;-81
2023/12/04 08:17:31;;;;;;;6.38;5.93;;;-7.10;99.90;;;;;;5024128;28;20201;-81
2023/12/04 08:19:59;;;;;;;8.98;5.40;;;-7.00;99.90;;;;;;5003449;28;20215;-82
2023/12/04 08:22:27;;;;;;;10.43;9.52;;;-6.90;99.90;;;;;;5031401;28;20208;-81
2023/12/04 08:24:54;;;;;;;6.60;6.05;;;-6.90;99.90;;;;;;5020591;28;20218;-81
2023/12/04 08:27:21;;;;;;;8.73;8.05;;;-6.80;99.90;;;;;;5015589;28;20573;-80
2023/12/04 08:29:49;;;;;;;10.30;9.55;;;-6.70;99.90;;;;;;4996294;28;20208;-81
2023/12/04 08:32:15;;;;;;;9.60;8.00;;;-6.60;99.90;;;;;;5020163;28;20241;-80
2023/12/04 08:34:43;;;;;;;8.25;7.50;;;-6.50;99.90;;;;;;5025134;28;20402;-81
2023/12/04 08:37:09;;;;;;;6.22;5.72;;;-6.40;99.90;;;;;;5028203;28;20244;-82
2023/12/04 08:39:38;;;;;;;9.80;6.70;;;-6.30;99.90;;;;;;5014387;28;20210;-80
2023/12/04 08:42:05;;;;;;;15.77;9.70;;;-6.20;99.90;;;;;;5013535;28;20211;-83
2023/12/04 08:44:40;;;;;;;6.90;6.40;;;-6.10;99.90;;;;;;5016168;28;20363;-83
2023/12/04 08:47:07;;;;;;;11.93;9.20;;;-6.00;99.90;;;;;;5014867;28;20229;-81
2023/12/04 08:49:35;;;;;;;8.38;7.60;;;-6.00;99.90;;;;;;5024062;28;20378;-80
2023/12/04 08:52:12;;;;;;;7.80;6.03;;;-5.90;99.90;;;;;;5003246;28;20296;-82
2023/12/04 08:54:43;;;;;;;11.95;7.10;;;-5.80;99.90;;;;;;5023536;28;20204;-79
2023/12/04 08:57:10;;;;;;;10.70;9.68;;;-5.70;99.90;;;;;;5019574;28;20260;-81
2023/12/04 08:59:37;;;;;;;11.00;7.05;;;-5.70;99.90;;;;;;5010195;28;20248;-81
2023/12/04 09:02:05;;;;;;;8.18;7.43;;;-5.60;99.90;;;;;;5022383;28;20274;-81
2023/12/04 09:04:38;;;;;;;5.88;5.38;;;-5.40;99.90;;;;;;5023703;28;20421;-79
2023/12/04 09:07:08;;;;;;;6.45;5.95;;;-5.30;99.90;;;;;;5019283;28;20214;-88
2023/12/04 09:09:37;;;;;;;5.85;5.40;;;-5.30;99.90;;;;;;5027931;28;20212;-83
2023/12/04 09:12:07;;;;;;;15.95;9.10;;;-5.10;99.90;;;;;;5018453;28;20201;-80
2023/12/04 09:14:35;;;;;;;7.95;7.35;;;-5.10;99.90;;;;;;5037489;28;20289;-81
2023/12/04 09:17:03;;;;;;;17.40;8.27;;;-5.00;99.90;;;;;;5038764;28;20292;-82
2023/12/04 09:19:32;;;;;;;7.32;6.72;;;-4.90;99.90;;;;;;5027401;28;20282;-79
2023/12/04 09:22:08;;;;;;;14.93;8.50;;;-5.00;99.90;;;;;;5017876;28;20193;-78
2023/12/04 09:24:46;;;;;;;18.25;8.35;;;-4.90;99.90;;;;;;5023889;28;20268;-79
2023/12/04 09:27:20;;;;;;;7.57;6.93;;;-4.80;99.90;;;;;;5007896;28;20471;-80
2023/12/04 09:29:56;;;;;;;13.35;10.40;;;-4.90;99.90;;;;;;5026652;28;20210;-82
2023/12/04 09:32:24;;;;;;;9.25;6.82;;;-4.90;99.90;;;;;;5025109;28;20635;-81
2023/12/04 09:34:52;;;;;;;8.52;7.72;;;-4.80;99.90;;;;;;5049577;28;20189;-80
2023/12/04 09:45:25;;;;;;;7.60;6.90;;;-4.70;99.90;;;;;;5848299;23;20242;-82
2023/12/04 09:50:40;;;;;;;3.88;3.78;;;-4.50;99.90;;;;;;5611000;23;20234;-84
2023/12/04 09:53:11;;;;;;;7.47;6.78;;;-4.40;99.90;;;;;;4972757;28;20208;-82
2023/12/04 09:55:38;;;;;;;3.28;3.17;;;-4.40;99.90;;;;;;4988869;28;20344;-82
2023/12/04 09:58:05;;;;;;;5.82;5.35;;;-4.30;99.90;;;;;;4966840;28;20256;-84
2023/12/04 10:00:33;;;;;;;4.93;4.60;;;-4.40;99.90;;;;;;5004391;28;20186;-84
2023/12/04 10:03:02;;;;;;;16.45;7.38;;;-4.30;99.90;;;;;;4998327;28;20214;-81
2023/12/04 10:05:29;;;;;;;6.00;5.50;;;-4.20;99.90;;;;;;5000642;28;20374;-80
2023/12/04 10:07:56;;;;;;;4.55;4.25;;;-4.10;99.90;;;;;;4992701;28;20195;-85
2023/12/04 10:10:24;;;;;;;23.15;8.82;;;-4.10;99.90;;;;;;4960797;28;20211;-83
2023/12/04 10:12:51;;;;;;;9.88;5.28;;;-3.90;99.90;;;;;;4980219;28;20504;-84
2023/12/04 10:15:19;;;;;;;6.65;6.28;;;-3.80;99.90;;;;;;4997806;28;20220;-86
2023/12/04 10:17:46;;;;;;;4.85;4.40;;;-3.80;99.90;;;;;;4975444;28;20267;-79
2023/12/04 10:20:19;;;;;;;4.93;4.53;;;-3.80;99.90;;;;;;4999475;28;20190;-82
2023/12/04 10:23:01;;;;;;;8.18;4.75;;;-3.70;99.90;;;;;;4993707;28;20366;-85
2023/12/04 10:25:30;;;;;;;5.13;3.83;;;-3.80;99.90;;;;;;4980929;28;20241;-85
2023/12/04 10:28:09;;;;;;;6.53;4.68;;;-3.80;99.90;;;;;;4978325;28;20201;-82
2023/12/04 10:30:36;;;;;;;8.80;6.78;;;-3.70;99.90;;;;;;4994834;28;20237;-87
2023/12/04 10:33:05;;;;;;;5.30;4.78;;;-3.70;99.90;;;;;;4995324;28;20403;-87
2023/12/04 10:35:38;;;;;;;3.83;3.60;;;-3.70;99.90;;;;;;5003963;28;20258;-86
2023/12/04 10:38:06;;;;;;;3.03;2.92;;;-3.80;99.90;;;;;;4998453;28;20202;-88
2023/12/04 10:40:39;;;;;;;22.05;6.63;;;-3.80;99.90;;;;;;4993900;28;20212;-84
2023/12/04 10:43:15;;;;;;;5.80;5.40;;;-3.90;99.90;;;;;;4982979;28;20228;-83
2023/12/04 10:45:45;;;;;;;3.67;3.53;;;-3.90;99.90;;;;;;4986690;28;20206;-86
2023/12/04 10:48:13;;;;;;;12.52;7.45;;;-3.90;99.90;;;;;;4989694;28;20519;-83
2023/12/04 10:50:45;;;;;;;4.72;4.00;;;-3.80;99.90;;;;;;4995830;28;20238;-83
2023/12/04 10:53:13;;;;;;;5.43;4.97;;;-3.80;99.90;;;;;;4979862;28;20311;-88
2023/12/04 10:55:41;;;;;;;7.13;6.50;;;-3.60;99.90;;;;;;4973627;28;20578;-81
2023/12/04 10:58:11;;;;;;;5.03;4.47;;;-3.60;99.90;;;;;;4990337;28;20396;-83
2023/12/04 11:00:44;;;;;;;6.93;3.78;;;-3.50;99.90;;;;;;5012253;28;20266;-83
2023/12/04 11:03:37;;;;;;;14.73;7.07;;;-3.50;99.90;;;;;;4995508;28;20210;-89
2023/12/04 11:06:09;;;;;;;15.60;4.78;;;-3.40;99.90;;;;;;4987668;28;20209;-84
2023/12/04 11:08:38;;;;;;;10.38;4.18;;;-3.40;99.90;;;;;;4987167;28;20229;-85
2023/12/04 11:11:08;;;;;;;8.18;7.43;;;-3.50;99.90;;;;;;4989420;28;20238;-82
2023/12/04 11:13:45;;;;;;;6.32;5.70;;;-3.50;99.90;;;;;;4988189;28;20266;-83
2023/12/04 11:16:14;;;;;;;8.05;6.13;;;-3.40;99.90;;;;;;4996581;28;20237;-86
2023/12/04 11:18:48;;;;;;;2.15;2.05;;;-3.40;99.90;;;;;;4984755;28;20395;-82
2023/12/04 11:21:16;;;;;;;3.60;3.40;;;-3.30;99.90;;;;;;4981476;28;20538;-81
2023/12/04 11:23:43;;;;;;;6.32;5.80;;;-3.20;99.90;;;;;;4989227;28;20226;-82
2023/12/04 11:26:12;;;;;;;6.97;3.42;;;-3.10;99.90;;;;;;4985484;28;20250;-86
2023/12/04 11:28:39;;;;;;;3.00;2.90;;;-2.90;99.90;;;;;;4984187;28;20416;-80
2023/12/04 11:31:07;;;;;;;6.68;6.15;;;-2.90;99.90;;;;;;4982685;28;20327;-82
2023/12/04 11:33:36;;;;;;;6.38;4.95;;;-3.00;99.90;;;;;;4984776;28;20234;-84
2023/12/04 11:36:11;;;;;;;7.05;6.50;;;-2.90;99.90;;;;;;4995661;28;20188;-88
2023/12/04 11:38:48;;;;;;;5.13;4.93;;;-2.80;99.90;;;;;;4987776;28;20200;-88
2023/12/04 11:41:24;;;;;;;3.58;3.47;;;-2.90;99.90;;;;;;4994047;28;20234;-86
2023/12/04 11:43:58;;;;;;;4.38;4.05;;;-2.80;99.90;;;;;;4963429;28;20187;-91
2023/12/04 11:46:27;;;;;;;12.38;11.27;;;-2.80;99.90;;;;;;4969755;28;20594;-81
2023/12/04 11:49:17;;;;;;;7.55;6.80;;;-2.80;99.90;;;;;;5001052;28;20207;-86
2023/12/04 11:51:47;;;;;;;3.47;3.25;;;-2.90;99.90;;;;;;4972995;28;20226;-86
2023/12/04 11:54:17;;;;;;;4.38;4.15;;;-2.90;99.90;;;;;;4970164;28;20269;-83
2023/12/04 11:57:10;;;;;;;5.22;4.78;;;-3.00;99.90;;;;;;4987639;28;20232;-88
2023/12/04 11:59:39;;;;;;;7.85;4.38;;;-3.10;99.90;;;;;;4983446;28;20203;-83
2023/12/04 12:02:13;;;;;;;6.45;5.95;;;-3.00;99.90;;;;;;4969130;28;20282;-85
2023/12/04 12:04:41;;;;;;;4.78;4.43;;;-3.00;99.90;;;;;;4978683;28;20206;-84
2023/12/04 12:07:09;;;;;;;11.68;9.23;;;-3.00;99.90;;;;;;4977232;28;20267;-87
2023/12/04 12:09:36;;;;;;;10.43;6.05;;;-3.10;99.90;;;;;;4989593;28;20226;-88
2023/12/04 12:12:04;;;;;;;4.72;4.38;;;-3.20;99.90;;;;;;4969129;28;20220;-83
2023/12/04 12:14:33;;;;;;;6.50;6.00;;;-3.20;99.90;;;;;;4997351;28;20555;-89
2023/12/04 12:17:04;;;;;;;6.57;6.13;;;-3.20;99.90;;;;;;5001220;28;20301;-88
2023/12/04 12:19:34;;;;;;;7.18;4.50;;;-3.30;99.90;;;;;;5000491;28;20203;-83
2023/12/04 12:22:02;;;;;;;4.63;4.32;;;-3.40;99.90;;;;;;4973287;28;20196;-86
2023/12/04 12:24:31;;;;;;;3.50;3.38;;;-3.40;99.90;;;;;;4992087;28;20211;-84
2023/12/04 12:26:59;;;;;;;7.00;6.50;;;-3.50;99.90;;;;;;4991438;28;20408;-88
2023/12/04 12:29:27;;;;;;;7.55;5.30;;;-3.50;99.90;;;;;;4971983;28;20385;-83
2023/12/04 12:31:55;;;;;;;7.15;6.75;;;-3.40;99.90;;;;;;4989961;28;20443;-86
2023/12/04 12:34:22;;;;;;;3.03;2.40;;;-3.60;99.90;;;;;;4988964;28;20234;-82
2023/12/04 12:36:51;;;;;;;7.22;6.70;;;-3.20;99.90;;;;;;4983358;28;20239;-86
2023/12/04 12:39:19;;;;;;;6.25;5.40;;;-3.60;99.90;;;;;;4997155;28;20202;-86
2023/12/04 12:41:50;;;;;;;15.70;8.68;;;-3.60;99.90;;;;;;4978762;28;20209;-84
2023/12/04 12:44:17;;;;;;;7.35;6.72;;;-3.80;99.90;;;;;;4971723;28;20203;-83
2023/12/04 12:46:49;;;;;;;8.13;7.50;;;-3.80;99.90;;;;;;4983533;28;20211;-81
2023/12/04 12:49:20;;;;;;;5.50;5.10;;;-3.90;99.90;;;;;;4973265;28;20226;-86
2023/12/04 12:52:08;;;;;;;12.23;8.73;;;-3.90;99.90;;;;;;4998087;28;20410;-86
2023/12/04 12:54:40;;;;;;;9.85;9.00;;;-3.90;99.90;;;;;;4967489;28;20198;-82
2023/12/04 12:57:09;;;;;;;10.55;9.65;;;-4.00;99.90;;;;;;4982152;28;20205;-84
2023/12/04 12:59:41;;;;;;;8.93;6.10;;;-4.10;99.90;;;;;;4976151;28;20203;-88
2023/12/04 13:02:10;;;;;;;4.57;4.18;;;-4.10;99.90;;;;;;4987902;28;20488;-84
2023/12/04 13:04:40;;;;;;;8.63;7.35;;;-4.30;99.90;;;;;;4988963;28;20206;-91